Aviation Digital Data Service (ADDS)

Output produced by METARs form (2152 UTC 16 February 2019)
found at http://www.aviationweather.gov/metar/data/
 
METAR text: FNLU 162100Z 18008KT 9000 FEW020 BKN070 27/23 Q1013
Conditions at: FNLU (LUANDA/4 DE FEVE, AO) observed 2100 UTC 16 February 2019
Temperature: 27.0°C (81°F)
Dewpoint: 23.0°C (73°F) [RH = 79%]
Pressure (altimeter): 29.91 inches Hg (1013.0 mb)
Winds: from the S (180 degrees) at 9 MPH (8 knots; 4.1 m/s)
Visibility: 6 miles ( 9 km)
Ceiling: 7000 feet AGL
Clouds: few clouds at 2000 feet AGL
broken clouds at 7000 feet AGL
Weather: no significant weather observed at this time

METAR text: FNLU 162000Z 17009KT 9999 FEW020 SCT070 27/23 Q1013 NOSIG
Conditions at: FNLU (LUANDA/4 DE FEVE, AO) observed 2000 UTC 16 February 2019
Temperature: 27.0°C (81°F)
Dewpoint: 23.0°C (73°F) [RH = 79%]
Pressure (altimeter): 29.91 inches Hg (1013.0 mb)
Winds: from the S (170 degrees) at 10 MPH (9 knots; 4.6 m/s)
Visibility: 6 or more miles (10+ km)
Ceiling: at least 12,000 feet AGL
Clouds: few clouds at 2000 feet AGL
scattered clouds at 7000 feet AGL
Weather: no significant weather observed at this time

METAR text: FNLU 161900Z 22008KT 9999 FEW020 27/23 Q1011 NOSIG
Conditions at: FNLU (LUANDA/4 DE FEVE, AO) observed 1900 UTC 16 February 2019
Temperature: 27.0°C (81°F)
Dewpoint: 23.0°C (73°F) [RH = 79%]
Pressure (altimeter): 29.85 inches Hg (1011.0 mb)
Winds: from the SW (220 degrees) at 9 MPH (8 knots; 4.1 m/s)
Visibility: 6 or more miles (10+ km)
Ceiling: at least 12,000 feet AGL
Clouds: few clouds at 2000 feet AGL
Weather: no significant weather observed at this time

METAR text: FNLU 161800Z 21008KT 9999 FEW020 SCT070 28/23 Q1011
Conditions at: FNLU (LUANDA/4 DE FEVE, AO) observed 1800 UTC 16 February 2019
Temperature: 28.0°C (82°F)
Dewpoint: 23.0°C (73°F) [RH = 74%]
Pressure (altimeter): 29.85 inches Hg (1011.0 mb)
Winds: from the SSW (210 degrees) at 9 MPH (8 knots; 4.1 m/s)
Visibility: 6 or more miles (10+ km)
Ceiling: at least 12,000 feet AGL
Clouds: few clouds at 2000 feet AGL
scattered clouds at 7000 feet AGL
Weather: no significant weather observed at this time

METAR text: FNLU 161700Z 23008KT 9999 FEW020 SCT080 29/24 Q1010
Conditions at: FNLU (LUANDA/4 DE FEVE, AO) observed 1700 UTC 16 February 2019
Temperature: 29.0°C (84°F)
Dewpoint: 24.0°C (75°F) [RH = 74%]
Pressure (altimeter): 29.82 inches Hg (1010.0 mb)
Winds: from the SW (230 degrees) at 9 MPH (8 knots; 4.1 m/s)
Visibility: 6 or more miles (10+ km)
Ceiling: at least 12,000 feet AGL
Clouds: few clouds at 2000 feet AGL
scattered clouds at 8000 feet AGL
Weather: no significant weather observed at this time

METAR text: FNLU 161600Z 27007KT 9999 FEW020 FEW023TCU SCT080 31//24 Q1010
Conditions at: FNLU (LUANDA/4 DE FEVE, AO) observed 1600 UTC 16 February 2019
Temperature: missing
Dewpoint: missing
Pressure (altimeter): 29.82 inches Hg (1010.0 mb)
Winds: from the W (270 degrees) at 8 MPH (7 knots; 3.6 m/s)
Visibility: 6 or more miles (10+ km)
Ceiling: at least 12,000 feet AGL
Clouds: few clouds at 2000 feet AGL
few clouds at 2300 feet AGL
scattered clouds at 8000 feet AGL
Weather: no significant weather observed at this time

METAR text: FNLU 161500Z 29005KT 9999 SCT20 FEW023TCU BKN080 30/24 Q1010
Conditions at: FNLU (LUANDA/4 DE FEVE, AO) observed 1500 UTC 16 February 2019
Temperature: 30.0°C (86°F)
Dewpoint: 24.0°C (75°F) [RH = 70%]
Pressure (altimeter): 29.82 inches Hg (1010.0 mb)
Winds: from the WNW (290 degrees) at 6 MPH (5 knots; 2.6 m/s)
Visibility: 6 or more miles (10+ km)
Ceiling: 8000 feet AGL
Clouds: few clouds at 2300 feet AGL
broken clouds at 8000 feet AGL
Weather: no significant weather observed at this time

METAR text: FNLU 161400Z 27005KT 9999 SCT020 FEW023TCU BKN070 29/24 Q1011
Conditions at: FNLU (LUANDA/4 DE FEVE, AO) observed 1400 UTC 16 February 2019
Temperature: 29.0°C (84°F)
Dewpoint: 24.0°C (75°F) [RH = 74%]
Pressure (altimeter): 29.85 inches Hg (1011.0 mb)
Winds: from the W (270 degrees) at 6 MPH (5 knots; 2.6 m/s)
Visibility: 6 or more miles (10+ km)
Ceiling: 7000 feet AGL
Clouds: scattered clouds at 2000 feet AGL
few clouds at 2300 feet AGL
broken clouds at 7000 feet AGL
Weather: no significant weather observed at this time

METAR text: FNLU 161300Z 18004KT 9999 SCT020 BKN070 29/24 Q1012
Conditions at: FNLU (LUANDA/4 DE FEVE, AO) observed 1300 UTC 16 February 2019
Temperature: 29.0°C (84°F)
Dewpoint: 24.0°C (75°F) [RH = 74%]
Pressure (altimeter): 29.88 inches Hg (1012.0 mb)
Winds: from the S (180 degrees) at 5 MPH (4 knots; 2.1 m/s)
Visibility: 6 or more miles (10+ km)
Ceiling: 7000 feet AGL
Clouds: scattered clouds at 2000 feet AGL
broken clouds at 7000 feet AGL
Weather: no significant weather observed at this time

METAR text: FNLU 161200Z 15005KT 9000 SCT020 BKN070 29/24 Q1013
Conditions at: FNLU (LUANDA/4 DE FEVE, AO) observed 1200 UTC 16 February 2019
Temperature: 29.0°C (84°F)
Dewpoint: 24.0°C (75°F) [RH = 74%]
Pressure (altimeter): 29.91 inches Hg (1013.0 mb)
Winds: from the SSE (150 degrees) at 6 MPH (5 knots; 2.6 m/s)
Visibility: 6 miles ( 9 km)
Ceiling: 7000 feet AGL
Clouds: scattered clouds at 2000 feet AGL
broken clouds at 7000 feet AGL
Weather: no significant weather observed at this time

METAR text: FNLU 161100Z 13005KT 9000 FEW019 BKN070 28/24 Q1014
Conditions at: FNLU (LUANDA/4 DE FEVE, AO) observed 1100 UTC 16 February 2019
Temperature: 28.0°C (82°F)
Dewpoint: 24.0°C (75°F) [RH = 79%]
Pressure (altimeter): 29.94 inches Hg (1014.0 mb)
Winds: from the SE (130 degrees) at 6 MPH (5 knots; 2.6 m/s)
Visibility: 6 miles ( 9 km)
Ceiling: 7000 feet AGL
Clouds: few clouds at 1900 feet AGL
broken clouds at 7000 feet AGL
Weather: no significant weather observed at this time

METAR text: FNLU 161000Z 09004KT 9000 FEW019 BKN070 27/23 Q1014
Conditions at: FNLU (LUANDA/4 DE FEVE, AO) observed 1000 UTC 16 February 2019
Temperature: 27.0°C (81°F)
Dewpoint: 23.0°C (73°F) [RH = 79%]
Pressure (altimeter): 29.94 inches Hg (1014.0 mb)
Winds: from the E (90 degrees) at 5 MPH (4 knots; 2.1 m/s)
Visibility: 6 miles ( 9 km)
Ceiling: 7000 feet AGL
Clouds: few clouds at 1900 feet AGL
broken clouds at 7000 feet AGL
Weather: no significant weather observed at this time

METAR text: FNLU 160900Z VRB03KT 9000 FEW019 BKN070 27/23 Q1014
Conditions at: FNLU (LUANDA/4 DE FEVE, AO) observed 0900 UTC 16 February 2019
Temperature: 27.0°C (81°F)
Dewpoint: 23.0°C (73°F) [RH = 79%]
Pressure (altimeter): 29.94 inches Hg (1014.0 mb)
Winds: variable direction winds at 3 MPH (3 knots; 1.5 m/s)
Visibility: 6 miles ( 9 km)
Ceiling: 7000 feet AGL
Clouds: few clouds at 1900 feet AGL
broken clouds at 7000 feet AGL
Weather: no significant weather observed at this time

METAR text: FNLU 160800Z 08005KT 9000 FEW019 BKN070 26/24 Q1014
Conditions at: FNLU (LUANDA/4 DE FEVE, AO) observed 0800 UTC 16 February 2019
Temperature: 26.0°C (79°F)
Dewpoint: 24.0°C (75°F) [RH = 89%]
Pressure (altimeter): 29.94 inches Hg (1014.0 mb)
Winds: from the E (80 degrees) at 6 MPH (5 knots; 2.6 m/s)
Visibility: 6 miles ( 9 km)
Ceiling: 7000 feet AGL
Clouds: few clouds at 1900 feet AGL
broken clouds at 7000 feet AGL
Weather: no significant weather observed at this time

METAR text: FNLU 160700Z 07006KT 9000 FEW017 FEW021TCU BKN070 25/23 Q1014
Conditions at: FNLU (LUANDA/4 DE FEVE, AO) observed 0700 UTC 16 February 2019
Temperature: 25.0°C (77°F)
Dewpoint: 23.0°C (73°F) [RH = 89%]
Pressure (altimeter): 29.94 inches Hg (1014.0 mb)
Winds: from the ENE (70 degrees) at 7 MPH (6 knots; 3.1 m/s)
Visibility: 6 miles ( 9 km)
Ceiling: 7000 feet AGL
Clouds: few clouds at 1700 feet AGL
few clouds at 2100 feet AGL
broken clouds at 7000 feet AGL
Weather: no significant weather observed at this time

METAR text: FNLU 160600Z 08004KT 8000 FEW020 BKN070 25/23 Q1013
Conditions at: FNLU (LUANDA/4 DE FEVE, AO) observed 0600 UTC 16 February 2019
Temperature: 25.0°C (77°F)
Dewpoint: 23.0°C (73°F) [RH = 89%]
Pressure (altimeter): 29.91 inches Hg (1013.0 mb)
Winds: from the E (80 degrees) at 5 MPH (4 knots; 2.1 m/s)
Visibility: 5 miles ( 8 km)
Ceiling: 7000 feet AGL
Clouds: few clouds at 2000 feet AGL
broken clouds at 7000 feet AGL
Weather: no significant weather observed at this time

METAR text: FNLU 160500Z VRB02KT 9999 SCT020 BKN070 25/23 Q1013
Conditions at: FNLU (LUANDA/4 DE FEVE, AO) observed 0500 UTC 16 February 2019
Temperature: 25.0°C (77°F)
Dewpoint: 23.0°C (73°F) [RH = 89%]
Pressure (altimeter): 29.91 inches Hg (1013.0 mb)
Winds: variable direction winds at 2 MPH (2 knots; 1.0 m/s)
Visibility: 6 or more miles (10+ km)
Ceiling: 7000 feet AGL
Clouds: scattered clouds at 2000 feet AGL
broken clouds at 7000 feet AGL
Weather: no significant weather observed at this time

METAR text: FNLU 160400Z VRB02KT 9999 SCT020 BKN080 25/23 Q1013
Conditions at: FNLU (LUANDA/4 DE FEVE, AO) observed 0400 UTC 16 February 2019
Temperature: 25.0°C (77°F)
Dewpoint: 23.0°C (73°F) [RH = 89%]
Pressure (altimeter): 29.91 inches Hg (1013.0 mb)
Winds: variable direction winds at 2 MPH (2 knots; 1.0 m/s)
Visibility: 6 or more miles (10+ km)
Ceiling: 8000 feet AGL
Clouds: scattered clouds at 2000 feet AGL
broken clouds at 8000 feet AGL
Weather: no significant weather observed at this time

METAR text: FNLU 160300Z VRB02KT 9999 SCT020 BKN080 25/23 Q1012
Conditions at: FNLU (LUANDA/4 DE FEVE, AO) observed 0300 UTC 16 February 2019
Temperature: 25.0°C (77°F)
Dewpoint: 23.0°C (73°F) [RH = 89%]
Pressure (altimeter): 29.88 inches Hg (1012.0 mb)
Winds: variable direction winds at 2 MPH (2 knots; 1.0 m/s)
Visibility: 6 or more miles (10+ km)
Ceiling: 8000 feet AGL
Clouds: scattered clouds at 2000 feet AGL
broken clouds at 8000 feet AGL
Weather: no significant weather observed at this time

METAR text: FNLU 160200Z VRB02KT 9999 SCT020 BKN080 25/23 Q1013
Conditions at: FNLU (LUANDA/4 DE FEVE, AO) observed 0200 UTC 16 February 2019
Temperature: 25.0°C (77°F)
Dewpoint: 23.0°C (73°F) [RH = 89%]
Pressure (altimeter): 29.91 inches Hg (1013.0 mb)
Winds: variable direction winds at 2 MPH (2 knots; 1.0 m/s)
Visibility: 6 or more miles (10+ km)
Ceiling: 8000 feet AGL
Clouds: scattered clouds at 2000 feet AGL
broken clouds at 8000 feet AGL
Weather: no significant weather observed at this time

METAR text: FNLU 160100Z 14004KT 9999 FEW020 BKN080 25/23 Q1013
Conditions at: FNLU (LUANDA/4 DE FEVE, AO) observed 0100 UTC 16 February 2019
Temperature: 25.0°C (77°F)
Dewpoint: 23.0°C (73°F) [RH = 89%]
Pressure (altimeter): 29.91 inches Hg (1013.0 mb)
Winds: from the SE (140 degrees) at 5 MPH (4 knots; 2.1 m/s)
Visibility: 6 or more miles (10+ km)
Ceiling: 8000 feet AGL
Clouds: few clouds at 2000 feet AGL
broken clouds at 8000 feet AGL
Weather: no significant weather observed at this time

METAR text: FNLU 160000Z 15004KT 9999 FEW020 BKN080 25/23 Q1013
Conditions at: FNLU (LUANDA/4 DE FEVE, AO) observed 0000 UTC 16 February 2019
Temperature: 25.0°C (77°F)
Dewpoint: 23.0°C (73°F) [RH = 89%]
Pressure (altimeter): 29.91 inches Hg (1013.0 mb)
Winds: from the SSE (150 degrees) at 5 MPH (4 knots; 2.1 m/s)
Visibility: 6 or more miles (10+ km)
Ceiling: 8000 feet AGL
Clouds: few clouds at 2000 feet AGL
broken clouds at 8000 feet AGL
Weather: no significant weather observed at this time

METAR text: FNLU 152300Z 12004KT 9999 SCT020 24/23 Q1014
Conditions at: FNLU (LUANDA/4 DE FEVE, AO) observed 2300 UTC 15 February 2019
Temperature: 24.0°C (75°F)
Dewpoint: 23.0°C (73°F) [RH = 94%]
Pressure (altimeter): 29.94 inches Hg (1014.0 mb)
Winds: from the ESE (120 degrees) at 5 MPH (4 knots; 2.1 m/s)
Visibility: 6 or more miles (10+ km)
Ceiling: at least 12,000 feet AGL
Clouds: scattered clouds at 2000 feet AGL
Weather: no significant weather observed at this time

METAR text: FNLU 152200Z VRB03KT 9999 SCT020 24/23 Q1014
Conditions at: FNLU (LUANDA/4 DE FEVE, AO) observed 2200 UTC 15 February 2019
Temperature: 24.0°C (75°F)
Dewpoint: 23.0°C (73°F) [RH = 94%]
Pressure (altimeter): 29.94 inches Hg (1014.0 mb)
Winds: variable direction winds at 3 MPH (3 knots; 1.5 m/s)
Visibility: 6 or more miles (10+ km)
Ceiling: at least 12,000 feet AGL
Clouds: scattered clouds at 2000 feet AGL
Weather: no significant weather observed at this time

METAR text: FNLU 152100Z 03010KT 8000 -RA SCT020 BKN080 24/23 Q1015
Conditions at: FNLU (LUANDA/4 DE FEVE, AO) observed 2100 UTC 15 February 2019
Temperature: 24.0°C (75°F)
Dewpoint: 23.0°C (73°F) [RH = 94%]
Pressure (altimeter): 29.97 inches Hg (1015.0 mb)
Winds: from the NNE (30 degrees) at 12 MPH (10 knots; 5.1 m/s)
Visibility: 5 miles ( 8 km)
Ceiling: 8000 feet AGL
Clouds: scattered clouds at 2000 feet AGL
broken clouds at 8000 feet AGL
Weather: -RA  (light rain)

METAR text: FNLU 152000Z 04012KT 8000 -RA BKN020 25/23 Q1015 NOSIG
Conditions at: FNLU (LUANDA/4 DE FEVE, AO) observed 2000 UTC 15 February 2019
Temperature: 25.0°C (77°F)
Dewpoint: 23.0°C (73°F) [RH = 89%]
Pressure (altimeter): 29.97 inches Hg (1015.0 mb)
Winds: from the NE (40 degrees) at 14 MPH (12 knots; 6.2 m/s)
Visibility: 5 miles ( 8 km)
Ceiling: 2000 feet AGL
Clouds: broken clouds at 2000 feet AGL
Weather: -RA  (light rain)

METAR text: FNLU 151900Z 18006KT 9999 FEW022 BKN080 28/24 Q1013 NOSIG
Conditions at: FNLU (LUANDA/4 DE FEVE, AO) observed 1900 UTC 15 February 2019
Temperature: 28.0°C (82°F)
Dewpoint: 24.0°C (75°F) [RH = 79%]
Pressure (altimeter): 29.91 inches Hg (1013.0 mb)
Winds: from the S (180 degrees) at 7 MPH (6 knots; 3.1 m/s)
Visibility: 6 or more miles (10+ km)
Ceiling: 8000 feet AGL
Clouds: few clouds at 2200 feet AGL
broken clouds at 8000 feet AGL
Weather: no significant weather observed at this time

METAR text: FNLU 151800Z 19008KT 9999 SCT022 BKN080 28/23 Q1012 NOSIG
Conditions at: FNLU (LUANDA/4 DE FEVE, AO) observed 1800 UTC 15 February 2019
Temperature: 28.0°C (82°F)
Dewpoint: 23.0°C (73°F) [RH = 74%]
Pressure (altimeter): 29.88 inches Hg (1012.0 mb)
Winds: from the S (190 degrees) at 9 MPH (8 knots; 4.1 m/s)
Visibility: 6 or more miles (10+ km)
Ceiling: 8000 feet AGL
Clouds: scattered clouds at 2200 feet AGL
broken clouds at 8000 feet AGL
Weather: no significant weather observed at this time

METAR text: FNLU 151700Z 21008KT 9999 SCT022 BKN080 29/23 Q1010 NOSIG
Conditions at: FNLU (LUANDA/4 DE FEVE, AO) observed 1700 UTC 15 February 2019
Temperature: 29.0°C (84°F)
Dewpoint: 23.0°C (73°F) [RH = 70%]
Pressure (altimeter): 29.82 inches Hg (1010.0 mb)
Winds: from the SSW (210 degrees) at 9 MPH (8 knots; 4.1 m/s)
Visibility: 6 or more miles (10+ km)
Ceiling: 8000 feet AGL
Clouds: scattered clouds at 2200 feet AGL
broken clouds at 8000 feet AGL
Weather: no significant weather observed at this time

METAR text: FNLU 151600Z 23008KT 9999 SCT023 BKN080 30/23 Q1010 NOSIG
Conditions at: FNLU (LUANDA/4 DE FEVE, AO) observed 1600 UTC 15 February 2019
Temperature: 30.0°C (86°F)
Dewpoint: 23.0°C (73°F) [RH = 66%]
Pressure (altimeter): 29.82 inches Hg (1010.0 mb)
Winds: from the SW (230 degrees) at 9 MPH (8 knots; 4.1 m/s)
Visibility: 6 or more miles (10+ km)
Ceiling: 8000 feet AGL
Clouds: scattered clouds at 2300 feet AGL
broken clouds at 8000 feet AGL
Weather: no significant weather observed at this time

METAR text: FNLU 151500Z 23014KT 9999 FEW023 BKN080 30/23 Q1009 NOSIG
Conditions at: FNLU (LUANDA/4 DE FEVE, AO) observed 1500 UTC 15 February 2019
Temperature: 30.0°C (86°F)
Dewpoint: 23.0°C (73°F) [RH = 66%]
Pressure (altimeter): 29.79 inches Hg (1009.0 mb)
Winds: from the SW (230 degrees) at 16 MPH (14 knots; 7.2 m/s)
Visibility: 6 or more miles (10+ km)
Ceiling: 8000 feet AGL
Clouds: few clouds at 2300 feet AGL
broken clouds at 8000 feet AGL
Weather: no significant weather observed at this time

METAR text: FNLU 151400Z 25012KT 9999 FEW023 32/24 Q1010 NOSIG
Conditions at: FNLU (LUANDA/4 DE FEVE, AO) observed 1400 UTC 15 February 2019
Temperature: 32.0°C (90°F)
Dewpoint: 24.0°C (75°F) [RH = 63%]
Pressure (altimeter): 29.82 inches Hg (1010.0 mb)
Winds: from the WSW (250 degrees) at 14 MPH (12 knots; 6.2 m/s)
Visibility: 6 or more miles (10+ km)
Ceiling: at least 12,000 feet AGL
Clouds: few clouds at 2300 feet AGL
Weather: no significant weather observed at this time

METAR text: FNLU 151300Z 26010KT 9999 FEW023 SCT080 32/24 Q1011 NOSIG
Conditions at: FNLU (LUANDA/4 DE FEVE, AO) observed 1300 UTC 15 February 2019
Temperature: 32.0°C (90°F)
Dewpoint: 24.0°C (75°F) [RH = 63%]
Pressure (altimeter): 29.85 inches Hg (1011.0 mb)
Winds: from the W (260 degrees) at 12 MPH (10 knots; 5.1 m/s)
Visibility: 6 or more miles (10+ km)
Ceiling: at least 12,000 feet AGL
Clouds: few clouds at 2300 feet AGL
scattered clouds at 8000 feet AGL
Weather: no significant weather observed at this time

METAR text: FNLU 151100Z 29005KT 9999 SCT023 BKN080 31/23 Q1013 NOSIG
Conditions at: FNLU (LUANDA/4 DE FEVE, AO) observed 1100 UTC 15 February 2019
Temperature: 31.0°C (88°F)
Dewpoint: 23.0°C (73°F) [RH = 63%]
Pressure (altimeter): 29.91 inches Hg (1013.0 mb)
Winds: from the WNW (290 degrees) at 6 MPH (5 knots; 2.6 m/s)
Visibility: 6 or more miles (10+ km)
Ceiling: 8000 feet AGL
Clouds: scattered clouds at 2300 feet AGL
broken clouds at 8000 feet AGL
Weather: no significant weather observed at this time

METAR text: FNLU 151000Z 28004KT 9999 SCT023 SCT080 30/24 Q1014 NOSIG
Conditions at: FNLU (LUANDA/4 DE FEVE, AO) observed 1000 UTC 15 February 2019
Temperature: 30.0°C (86°F)
Dewpoint: 24.0°C (75°F) [RH = 70%]
Pressure (altimeter): 29.94 inches Hg (1014.0 mb)
Winds: from the W (280 degrees) at 5 MPH (4 knots; 2.1 m/s)
Visibility: 6 or more miles (10+ km)
Ceiling: at least 12,000 feet AGL
Clouds: scattered clouds at 2300 feet AGL
scattered clouds at 8000 feet AGL
Weather: no significant weather observed at this time

Forecast for: TAF
Text: TAF TAF FNLU 161700Z 1618/1724 21010KT 9999 FEW020 SCT050
Forecast period: 1800 to 1900 UTC 16 February 2019
Forecast type: FROM: standard forecast or significant change
Winds: from the SSW (210 degrees) at 12 MPH (10 knots; 5.1 m/s)
Visibility: 6 or more miles 10+ km)
Ceiling: at least 12,000 feet AGL
Clouds: few clouds at 2000 feet AGL
scattered clouds at 5000 feet AGL
Weather: no significant weather forecast for this period
Text: BECMG 1619/1621 19007KT
Forecast period: 1900 UTC 16 February 2019 to 0000 UTC 18 February 2019
Forecast type: BECOMING: Conditions expected to become as follows by 2100 UTC 16 February 2019
Winds: from the S (190 degrees) at 8 MPH (7 knots; 3.6 m/s)
Visibility: 6 or more miles 10+ km)
Ceiling: at least 12,000 feet AGL
Clouds: few clouds at 2000 feet AGL
scattered clouds at 5000 feet AGL
Weather: no significant weather forecast for this period
Text: TEMPO 1704/1708 13005KT 8000 FEW022 SCT040
Forecast period: 0400 to 0800 UTC 17 February 2019
Forecast type: TEMPORARY: The following changes expected for less than half the time period
Winds: from the SE (130 degrees) at 6 MPH (5 knots; 2.6 m/s)
Visibility: 5 miles (8 km)
Ceiling: at least 12,000 feet AGL
Clouds: few clouds at 2200 feet AGL
scattered clouds at 4000 feet AGL
Weather: no significant weather forecast for this period